sensor_id;sensor_type;location;lat;lon;timestamp;P1;durP1;ratioP1;P2;durP2;ratioP2
56373;SDS011;58212;47.034;7.376;2023-12-28T00:01:35;7.97;;;6.93;;
56373;SDS011;58212;47.034;7.376;2023-12-28T00:04:02;7.90;;;6.90;;
56373;SDS011;58212;47.034;7.376;2023-12-28T00:06:29;7.75;;;6.53;;
56373;SDS011;58212;47.034;7.376;2023-12-28T00:08:56;8.43;;;6.40;;
56373;SDS011;58212;47.034;7.376;2023-12-28T00:11:25;9.27;;;6.68;;
56373;SDS011;58212;47.034;7.376;2023-12-28T00:13:52;8.73;;;7.03;;
56373;SDS011;58212;47.034;7.376;2023-12-28T00:16:19;8.35;;;6.70;;
56373;SDS011;58212;47.034;7.376;2023-12-28T00:18:46;7.30;;;6.15;;
56373;SDS011;58212;47.034;7.376;2023-12-28T00:21:12;8.30;;;6.97;;
56373;SDS011;58212;47.034;7.376;2023-12-28T00:23:40;8.18;;;6.45;;
56373;SDS011;58212;47.034;7.376;2023-12-28T00:26:07;8.55;;;6.68;;
56373;SDS011;58212;47.034;7.376;2023-12-28T00:28:34;9.43;;;6.68;;
56373;SDS011;58212;47.034;7.376;2023-12-28T00:31:01;7.22;;;6.53;;
56373;SDS011;58212;47.034;7.376;2023-12-28T00:33:28;7.85;;;6.55;;
56373;SDS011;58212;47.034;7.376;2023-12-28T00:35:56;8.68;;;6.63;;
56373;SDS011;58212;47.034;7.376;2023-12-28T00:38:22;8.15;;;7.00;;
56373;SDS011;58212;47.034;7.376;2023-12-28T00:40:52;7.75;;;6.85;;
56373;SDS011;58212;47.034;7.376;2023-12-28T00:43:18;7.80;;;6.32;;
56373;SDS011;58212;47.034;7.376;2023-12-28T00:45:45;6.60;;;5.90;;
56373;SDS011;58212;47.034;7.376;2023-12-28T00:48:13;8.48;;;6.50;;
56373;SDS011;58212;47.034;7.376;2023-12-28T00:50:40;8.30;;;6.43;;
56373;SDS011;58212;47.034;7.376;2023-12-28T00:53:06;6.93;;;5.95;;
56373;SDS011;58212;47.034;7.376;2023-12-28T00:55:33;7.90;;;6.47;;
56373;SDS011;58212;47.034;7.376;2023-12-28T00:58:02;8.27;;;6.30;;
56373;SDS011;58212;47.034;7.376;2023-12-28T01:00:29;8.68;;;6.28;;
56373;SDS011;58212;47.034;7.376;2023-12-28T01:02:56;6.82;;;6.13;;
56373;SDS011;58212;47.034;7.376;2023-12-28T01:05:23;7.18;;;6.35;;
56373;SDS011;58212;47.034;7.376;2023-12-28T01:07:51;8.68;;;6.43;;
56373;SDS011;58212;47.034;7.376;2023-12-28T01:10:18;8.50;;;6.25;;
56373;SDS011;58212;47.034;7.376;2023-12-28T01:12:45;9.20;;;6.75;;
56373;SDS011;58212;47.034;7.376;2023-12-28T01:15:13;6.72;;;5.72;;
56373;SDS011;58212;47.034;7.376;2023-12-28T01:17:42;6.43;;;5.68;;
56373;SDS011;58212;47.034;7.376;2023-12-28T01:20:09;7.70;;;6.10;;
56373;SDS011;58212;47.034;7.376;2023-12-28T01:22:36;6.10;;;5.50;;
56373;SDS011;58212;47.034;7.376;2023-12-28T01:25:03;7.18;;;5.70;;
56373;SDS011;58212;47.034;7.376;2023-12-28T01:27:31;7.75;;;5.90;;
56373;SDS011;58212;47.034;7.376;2023-12-28T01:29:57;7.13;;;5.30;;
56373;SDS011;58212;47.034;7.376;2023-12-28T01:32:25;6.70;;;5.72;;
56373;SDS011;58212;47.034;7.376;2023-12-28T01:34:52;6.88;;;5.40;;
56373;SDS011;58212;47.034;7.376;2023-12-28T01:37:19;7.55;;;5.38;;
56373;SDS011;58212;47.034;7.376;2023-12-28T01:39:46;5.70;;;5.10;;
56373;SDS011;58212;47.034;7.376;2023-12-28T01:42:13;8.05;;;5.50;;
56373;SDS011;58212;47.034;7.376;2023-12-28T01:44:40;6.32;;;5.70;;
56373;SDS011;58212;47.034;7.376;2023-12-28T01:47:06;6.47;;;5.50;;
56373;SDS011;58212;47.034;7.376;2023-12-28T01:49:35;6.88;;;5.93;;
56373;SDS011;58212;47.034;7.376;2023-12-28T01:52:03;6.72;;;5.53;;
56373;SDS011;58212;47.034;7.376;2023-12-28T01:54:31;6.97;;;5.28;;
56373;SDS011;58212;47.034;7.376;2023-12-28T01:56:59;6.03;;;5.05;;
56373;SDS011;58212;47.034;7.376;2023-12-28T01:59:27;5.88;;;5.05;;
56373;SDS011;58212;47.034;7.376;2023-12-28T02:01:53;5.78;;;4.68;;
56373;SDS011;58212;47.034;7.376;2023-12-28T02:04:21;6.88;;;5.38;;
56373;SDS011;58212;47.034;7.376;2023-12-28T02:06:55;7.35;;;5.70;;
56373;SDS011;58212;47.034;7.376;2023-12-28T02:09:23;7.45;;;5.45;;
56373;SDS011;58212;47.034;7.376;2023-12-28T02:11:50;6.13;;;5.15;;
56373;SDS011;58212;47.034;7.376;2023-12-28T02:14:17;5.95;;;5.22;;
56373;SDS011;58212;47.034;7.376;2023-12-28T02:16:47;6.78;;;5.18;;
56373;SDS011;58212;47.034;7.376;2023-12-28T02:19:24;7.13;;;5.68;;
56373;SDS011;58212;47.034;7.376;2023-12-28T02:21:59;6.47;;;5.40;;
56373;SDS011;58212;47.034;7.376;2023-12-28T02:24:27;8.32;;;5.70;;
56373;SDS011;58212;47.034;7.376;2023-12-28T02:26:55;6.15;;;4.90;;
56373;SDS011;58212;47.034;7.376;2023-12-28T02:29:22;6.80;;;5.10;;
56373;SDS011;58212;47.034;7.376;2023-12-28T02:31:51;6.15;;;5.30;;
56373;SDS011;58212;47.034;7.376;2023-12-28T02:34:26;7.32;;;5.43;;
56373;SDS011;58212;47.034;7.376;2023-12-28T02:36:59;7.47;;;5.22;;
56373;SDS011;58212;47.034;7.376;2023-12-28T02:39:28;6.50;;;5.50;;
56373;SDS011;58212;47.034;7.376;2023-12-28T02:41:58;8.52;;;5.25;;
56373;SDS011;58212;47.034;7.376;2023-12-28T02:44:24;5.35;;;4.57;;
56373;SDS011;58212;47.034;7.376;2023-12-28T02:46:51;5.97;;;3.97;;
56373;SDS011;58212;47.034;7.376;2023-12-28T02:49:18;5.28;;;3.83;;
56373;SDS011;58212;47.034;7.376;2023-12-28T02:51:44;5.43;;;4.10;;
56373;SDS011;58212;47.034;7.376;2023-12-28T02:54:11;5.78;;;3.85;;
56373;SDS011;58212;47.034;7.376;2023-12-28T02:56:39;4.60;;;3.70;;
56373;SDS011;58212;47.034;7.376;2023-12-28T02:59:07;6.68;;;4.30;;
56373;SDS011;58212;47.034;7.376;2023-12-28T03:01:34;4.63;;;3.63;;
56373;SDS011;58212;47.034;7.376;2023-12-28T03:04:01;4.50;;;3.80;;
56373;SDS011;58212;47.034;7.376;2023-12-28T03:06:27;5.20;;;3.28;;
56373;SDS011;58212;47.034;7.376;2023-12-28T03:08:54;4.78;;;3.40;;
56373;SDS011;58212;47.034;7.376;2023-12-28T03:11:21;4.22;;;2.83;;
56373;SDS011;58212;47.034;7.376;2023-12-28T03:13:47;5.35;;;4.68;;
56373;SDS011;58212;47.034;7.376;2023-12-28T03:16:15;6.45;;;5.07;;
56373;SDS011;58212;47.034;7.376;2023-12-28T03:18:42;6.60;;;5.32;;
56373;SDS011;58212;47.034;7.376;2023-12-28T03:21:10;12.25;;;5.72;;
56373;SDS011;58212;47.034;7.376;2023-12-28T03:23:37;7.28;;;6.07;;
56373;SDS011;58212;47.034;7.376;2023-12-28T03:26:04;6.03;;;4.80;;
56373;SDS011;58212;47.034;7.376;2023-12-28T03:28:31;7.43;;;4.80;;
56373;SDS011;58212;47.034;7.376;2023-12-28T03:30:57;6.22;;;4.82;;
56373;SDS011;58212;47.034;7.376;2023-12-28T03:33:27;6.00;;;4.82;;
56373;SDS011;58212;47.034;7.376;2023-12-28T03:35:54;6.05;;;4.43;;
56373;SDS011;58212;47.034;7.376;2023-12-28T03:38:22;4.95;;;4.10;;
56373;SDS011;58212;47.034;7.376;2023-12-28T03:40:48;5.22;;;4.47;;
56373;SDS011;58212;47.034;7.376;2023-12-28T03:43:17;7.07;;;5.00;;
56373;SDS011;58212;47.034;7.376;2023-12-28T03:45:43;7.38;;;4.88;;
56373;SDS011;58212;47.034;7.376;2023-12-28T03:48:10;7.60;;;4.65;;
56373;SDS011;58212;47.034;7.376;2023-12-28T03:50:38;5.20;;;4.20;;
56373;SDS011;58212;47.034;7.376;2023-12-28T03:53:05;6.10;;;4.80;;
56373;SDS011;58212;47.034;7.376;2023-12-28T03:55:32;5.95;;;3.88;;
56373;SDS011;58212;47.034;7.376;2023-12-28T03:57:59;6.28;;;4.68;;
56373;SDS011;58212;47.034;7.376;2023-12-28T04:00:26;5.60;;;4.60;;
56373;SDS011;58212;47.034;7.376;2023-12-28T04:02:53;5.00;;;4.38;;
56373;SDS011;58212;47.034;7.376;2023-12-28T04:05:23;6.38;;;4.65;;
56373;SDS011;58212;47.034;7.376;2023-12-28T04:07:51;5.72;;;4.60;;
56373;SDS011;58212;47.034;7.376;2023-12-28T04:10:28;5.00;;;4.47;;
56373;SDS011;58212;47.034;7.376;2023-12-28T04:12:56;4.93;;;3.92;;
56373;SDS011;58212;47.034;7.376;2023-12-28T04:15:23;5.30;;;4.18;;
56373;SDS011;58212;47.034;7.376;2023-12-28T04:17:49;5.70;;;4.10;;
56373;SDS011;58212;47.034;7.376;2023-12-28T04:20:16;4.35;;;3.95;;
56373;SDS011;58212;47.034;7.376;2023-12-28T04:22:44;5.25;;;3.90;;
56373;SDS011;58212;47.034;7.376;2023-12-28T04:25:12;4.25;;;3.85;;
56373;SDS011;58212;47.034;7.376;2023-12-28T04:27:38;5.47;;;4.28;;
56373;SDS011;58212;47.034;7.376;2023-12-28T04:30:06;5.95;;;3.92;;
56373;SDS011;58212;47.034;7.376;2023-12-28T04:32:33;5.18;;;3.97;;
56373;SDS011;58212;47.034;7.376;2023-12-28T04:35:01;5.28;;;4.10;;
56373;SDS011;58212;47.034;7.376;2023-12-28T04:37:29;4.50;;;3.70;;
56373;SDS011;58212;47.034;7.376;2023-12-28T04:39:57;4.95;;;3.92;;
56373;SDS011;58212;47.034;7.376;2023-12-28T04:42:26;3.72;;;3.40;;
56373;SDS011;58212;47.034;7.376;2023-12-28T04:44:53;5.30;;;4.47;;
56373;SDS011;58212;47.034;7.376;2023-12-28T04:47:19;5.32;;;3.92;;
56373;SDS011;58212;47.034;7.376;2023-12-28T04:49:46;6.18;;;3.95;;
56373;SDS011;58212;47.034;7.376;2023-12-28T04:52:13;5.40;;;3.85;;
56373;SDS011;58212;47.034;7.376;2023-12-28T04:54:40;5.10;;;4.20;;
56373;SDS011;58212;47.034;7.376;2023-12-28T04:57:06;5.93;;;4.28;;
56373;SDS011;58212;47.034;7.376;2023-12-28T04:59:38;4.75;;;3.78;;
56373;SDS011;58212;47.034;7.376;2023-12-28T05:02:05;4.65;;;3.92;;
56373;SDS011;58212;47.034;7.376;2023-12-28T05:04:32;5.57;;;4.20;;
56373;SDS011;58212;47.034;7.376;2023-12-28T05:06:59;6.22;;;3.95;;
56373;SDS011;58212;47.034;7.376;2023-12-28T05:09:26;5.32;;;3.97;;
56373;SDS011;58212;47.034;7.376;2023-12-28T05:11:52;5.05;;;3.85;;
56373;SDS011;58212;47.034;7.376;2023-12-28T05:14:19;4.47;;;3.92;;
56373;SDS011;58212;47.034;7.376;2023-12-28T05:16:47;5.32;;;3.70;;
56373;SDS011;58212;47.034;7.376;2023-12-28T05:19:14;5.35;;;3.95;;
56373;SDS011;58212;47.034;7.376;2023-12-28T05:21:41;6.35;;;3.75;;
56373;SDS011;58212;47.034;7.376;2023-12-28T05:24:08;6.97;;;4.07;;
56373;SDS011;58212;47.034;7.376;2023-12-28T05:26:35;6.05;;;3.90;;
56373;SDS011;58212;47.034;7.376;2023-12-28T05:29:01;6.95;;;4.18;;
56373;SDS011;58212;47.034;7.376;2023-12-28T05:31:28;4.30;;;3.90;;
56373;SDS011;58212;47.034;7.376;2023-12-28T05:33:56;6.72;;;3.92;;
56373;SDS011;58212;47.034;7.376;2023-12-28T05:36:23;5.25;;;3.97;;
56373;SDS011;58212;47.034;7.376;2023-12-28T05:38:50;5.13;;;3.70;;
56373;SDS011;58212;47.034;7.376;2023-12-28T05:41:17;4.60;;;3.90;;
56373;SDS011;58212;47.034;7.376;2023-12-28T05:43:43;7.05;;;4.47;;
56373;SDS011;58212;47.034;7.376;2023-12-28T05:46:10;4.40;;;3.72;;
56373;SDS011;58212;47.034;7.376;2023-12-28T05:48:37;4.47;;;4.00;;
56373;SDS011;58212;47.034;7.376;2023-12-28T05:51:05;5.55;;;4.15;;
56373;SDS011;58212;47.034;7.376;2023-12-28T05:53:32;4.95;;;3.70;;
56373;SDS011;58212;47.034;7.376;2023-12-28T05:56:00;4.35;;;3.80;;
56373;SDS011;58212;47.034;7.376;2023-12-28T05:58:28;5.57;;;4.43;;
56373;SDS011;58212;47.034;7.376;2023-12-28T06:00:55;4.15;;;3.60;;
56373;SDS011;58212;47.034;7.376;2023-12-28T06:03:22;5.03;;;3.78;;
56373;SDS011;58212;47.034;7.376;2023-12-28T06:05:53;6.07;;;3.67;;
56373;SDS011;58212;47.034;7.376;2023-12-28T06:08:21;5.22;;;3.40;;
56373;SDS011;58212;47.034;7.376;2023-12-28T06:10:48;4.47;;;3.45;;
56373;SDS011;58212;47.034;7.376;2023-12-28T06:13:14;5.90;;;3.80;;
56373;SDS011;58212;47.034;7.376;2023-12-28T06:15:41;6.32;;;3.70;;
56373;SDS011;58212;47.034;7.376;2023-12-28T06:18:08;9.80;;;8.23;;
56373;SDS011;58212;47.034;7.376;2023-12-28T06:20:35;7.93;;;5.70;;
56373;SDS011;58212;47.034;7.376;2023-12-28T06:23:02;4.72;;;3.92;;
56373;SDS011;58212;47.034;7.376;2023-12-28T06:25:31;6.10;;;4.10;;
56373;SDS011;58212;47.034;7.376;2023-12-28T06:27:58;4.40;;;3.50;;
56373;SDS011;58212;47.034;7.376;2023-12-28T06:30:24;4.72;;;4.05;;
56373;SDS011;58212;47.034;7.376;2023-12-28T06:32:51;5.72;;;3.90;;
56373;SDS011;58212;47.034;7.376;2023-12-28T06:35:18;6.20;;;3.90;;
56373;SDS011;58212;47.034;7.376;2023-12-28T06:37:44;6.10;;;4.18;;
56373;SDS011;58212;47.034;7.376;2023-12-28T06:40:11;6.55;;;4.85;;
56373;SDS011;58212;47.034;7.376;2023-12-28T06:42:40;8.88;;;5.35;;
56373;SDS011;58212;47.034;7.376;2023-12-28T06:45:08;7.40;;;4.85;;
56373;SDS011;58212;47.034;7.376;2023-12-28T06:47:35;5.25;;;4.75;;
56373;SDS011;58212;47.034;7.376;2023-12-28T06:50:03;5.97;;;4.88;;
56373;SDS011;58212;47.034;7.376;2023-12-28T06:52:30;4.95;;;4.45;;
56373;SDS011;58212;47.034;7.376;2023-12-28T06:54:58;6.10;;;4.82;;
56373;SDS011;58212;47.034;7.376;2023-12-28T06:57:25;5.47;;;4.38;;
56373;SDS011;58212;47.034;7.376;2023-12-28T06:59:54;4.72;;;4.05;;
56373;SDS011;58212;47.034;7.376;2023-12-28T07:02:21;4.40;;;4.00;;
56373;SDS011;58212;47.034;7.376;2023-12-28T07:04:48;4.65;;;4.00;;
56373;SDS011;58212;47.034;7.376;2023-12-28T07:07:14;7.38;;;4.60;;
56373;SDS011;58212;47.034;7.376;2023-12-28T07:09:41;5.72;;;3.67;;
56373;SDS011;58212;47.034;7.376;2023-12-28T07:12:08;5.13;;;4.20;;
56373;SDS011;58212;47.034;7.376;2023-12-28T07:14:34;5.13;;;4.10;;
56373;SDS011;58212;47.034;7.376;2023-12-28T07:17:03;5.30;;;4.57;;
56373;SDS011;58212;47.034;7.376;2023-12-28T07:19:30;4.57;;;4.13;;
56373;SDS011;58212;47.034;7.376;2023-12-28T07:21:57;5.07;;;4.20;;
56373;SDS011;58212;47.034;7.376;2023-12-28T07:24:24;7.78;;;4.68;;
56373;SDS011;58212;47.034;7.376;2023-12-28T07:26:51;5.43;;;4.90;;
56373;SDS011;58212;47.034;7.376;2023-12-28T07:29:17;6.43;;;4.60;;
56373;SDS011;58212;47.034;7.376;2023-12-28T07:31:44;7.10;;;4.88;;
56373;SDS011;58212;47.034;7.376;2023-12-28T07:34:12;5.63;;;4.72;;
56373;SDS011;58212;47.034;7.376;2023-12-28T07:36:39;6.65;;;4.95;;
56373;SDS011;58212;47.034;7.376;2023-12-28T07:39:08;7.90;;;5.60;;
56373;SDS011;58212;47.034;7.376;2023-12-28T07:41:35;7.45;;;5.80;;
56373;SDS011;58212;47.034;7.376;2023-12-28T07:44:02;6.35;;;5.10;;
56373;SDS011;58212;47.034;7.376;2023-12-28T07:46:29;9.82;;;5.78;;
56373;SDS011;58212;47.034;7.376;2023-12-28T07:48:56;8.40;;;5.47;;
56373;SDS011;58212;47.034;7.376;2023-12-28T07:51:24;5.75;;;5.18;;
56373;SDS011;58212;47.034;7.376;2023-12-28T07:53:51;6.35;;;5.55;;
56373;SDS011;58212;47.034;7.376;2023-12-28T07:56:18;6.88;;;5.25;;
56373;SDS011;58212;47.034;7.376;2023-12-28T07:58:45;6.63;;;5.15;;
56373;SDS011;58212;47.034;7.376;2023-12-28T08:01:12;6.82;;;5.03;;
56373;SDS011;58212;47.034;7.376;2023-12-28T08:03:39;7.32;;;5.20;;
56373;SDS011;58212;47.034;7.376;2023-12-28T08:06:05;4.97;;;4.47;;
56373;SDS011;58212;47.034;7.376;2023-12-28T08:08:34;8.07;;;5.28;;
56373;SDS011;58212;47.034;7.376;2023-12-28T08:11:02;7.95;;;5.53;;
56373;SDS011;58212;47.034;7.376;2023-12-28T08:13:29;5.82;;;5.22;;
56373;SDS011;58212;47.034;7.376;2023-12-28T08:15:56;5.85;;;5.10;;
56373;SDS011;58212;47.034;7.376;2023-12-28T08:18:22;5.40;;;4.90;;
56373;SDS011;58212;47.034;7.376;2023-12-28T08:20:49;6.18;;;4.65;;
56373;SDS011;58212;47.034;7.376;2023-12-28T08:23:16;7.22;;;5.70;;
56373;SDS011;58212;47.034;7.376;2023-12-28T08:25:44;7.47;;;5.15;;
56373;SDS011;58212;47.034;7.376;2023-12-28T08:28:11;6.72;;;4.80;;
56373;SDS011;58212;47.034;7.376;2023-12-28T08:30:38;7.40;;;5.78;;
56373;SDS011;58212;47.034;7.376;2023-12-28T08:33:04;7.43;;;5.90;;
56373;SDS011;58212;47.034;7.376;2023-12-28T08:35:31;6.45;;;5.45;;
56373;SDS011;58212;47.034;7.376;2023-12-28T08:37:58;9.55;;;5.85;;
56373;SDS011;58212;47.034;7.376;2023-12-28T08:40:25;6.38;;;5.63;;
56373;SDS011;58212;47.034;7.376;2023-12-28T08:42:53;6.55;;;5.90;;
56373;SDS011;58212;47.034;7.376;2023-12-28T08:45:20;7.20;;;5.07;;
56373;SDS011;58212;47.034;7.376;2023-12-28T08:47:46;8.77;;;6.00;;
56373;SDS011;58212;47.034;7.376;2023-12-28T08:50:13;7.03;;;6.30;;
56373;SDS011;58212;47.034;7.376;2023-12-28T08:52:40;7.28;;;5.70;;
56373;SDS011;58212;47.034;7.376;2023-12-28T08:55:07;5.72;;;5.05;;
56373;SDS011;58212;47.034;7.376;2023-12-28T08:57:35;8.98;;;6.90;;
56373;SDS011;58212;47.034;7.376;2023-12-28T09:00:03;8.65;;;6.82;;
56373;SDS011;58212;47.034;7.376;2023-12-28T09:02:30;10.68;;;7.45;;
56373;SDS011;58212;47.034;7.376;2023-12-28T09:04:57;7.45;;;6.57;;
56373;SDS011;58212;47.034;7.376;2023-12-28T09:07:26;7.63;;;6.80;;
56373;SDS011;58212;47.034;7.376;2023-12-28T09:09:52;10.60;;;5.70;;
56373;SDS011;58212;47.034;7.376;2023-12-28T09:12:19;6.43;;;5.65;;
56373;SDS011;58212;47.034;7.376;2023-12-28T09:14:46;5.55;;;4.65;;
56373;SDS011;58212;47.034;7.376;2023-12-28T09:17:14;7.65;;;4.88;;
56373;SDS011;58212;47.034;7.376;2023-12-28T09:19:41;6.10;;;4.25;;
56373;SDS011;58212;47.034;7.376;2023-12-28T09:22:07;6.43;;;4.88;;
56373;SDS011;58212;47.034;7.376;2023-12-28T09:24:34;6.22;;;4.50;;
56373;SDS011;58212;47.034;7.376;2023-12-28T09:27:01;4.53;;;4.13;;
56373;SDS011;58212;47.034;7.376;2023-12-28T09:29:28;6.00;;;4.30;;
56373;SDS011;58212;47.034;7.376;2023-12-28T09:31:54;9.25;;;4.60;;
56373;SDS011;58212;47.034;7.376;2023-12-28T09:34:22;5.63;;;4.63;;
56373;SDS011;58212;47.034;7.376;2023-12-28T09:36:49;6.40;;;5.22;;
56373;SDS011;58212;47.034;7.376;2023-12-28T09:39:16;7.60;;;4.85;;
56373;SDS011;58212;47.034;7.376;2023-12-28T09:41:43;6.63;;;4.82;;
56373;SDS011;58212;47.034;7.376;2023-12-28T09:44:15;5.50;;;4.70;;
56373;SDS011;58212;47.034;7.376;2023-12-28T09:46:43;7.25;;;4.55;;
56373;SDS011;58212;47.034;7.376;2023-12-28T09:49:11;5.03;;;4.32;;
56373;SDS011;58212;47.034;7.376;2023-12-28T09:51:39;6.32;;;4.47;;
56373;SDS011;58212;47.034;7.376;2023-12-28T09:54:06;7.30;;;5.15;;
56373;SDS011;58212;47.034;7.376;2023-12-28T09:56:34;6.68;;;5.07;;
56373;SDS011;58212;47.034;7.376;2023-12-28T09:59:02;5.93;;;4.85;;
56373;SDS011;58212;47.034;7.376;2023-12-28T10:01:31;5.80;;;5.03;;
56373;SDS011;58212;47.034;7.376;2023-12-28T10:04:00;5.35;;;4.40;;
56373;SDS011;58212;47.034;7.376;2023-12-28T10:06:28;5.28;;;4.78;;
56373;SDS011;58212;47.034;7.376;2023-12-28T10:08:56;5.50;;;4.82;;
56373;SDS011;58212;47.034;7.376;2023-12-28T10:11:23;6.50;;;5.15;;
56373;SDS011;58212;47.034;7.376;2023-12-28T10:13:53;5.80;;;4.70;;
56373;SDS011;58212;47.034;7.376;2023-12-28T10:16:20;5.88;;;4.72;;
56373;SDS011;58212;47.034;7.376;2023-12-28T10:18:46;5.53;;;4.90;;
56373;SDS011;58212;47.034;7.376;2023-12-28T10:21:13;5.88;;;5.25;;
56373;SDS011;58212;47.034;7.376;2023-12-28T10:23:40;7.30;;;4.95;;
56373;SDS011;58212;47.034;7.376;2023-12-28T10:26:09;5.75;;;5.15;;
56373;SDS011;58212;47.034;7.376;2023-12-28T10:28:36;6.47;;;5.30;;
56373;SDS011;58212;47.034;7.376;2023-12-28T10:31:03;7.20;;;5.40;;
56373;SDS011;58212;47.034;7.376;2023-12-28T10:33:33;7.13;;;5.35;;
56373;SDS011;58212;47.034;7.376;2023-12-28T10:36:01;7.70;;;5.32;;
56373;SDS011;58212;47.034;7.376;2023-12-28T10:38:31;7.00;;;5.50;;
56373;SDS011;58212;47.034;7.376;2023-12-28T10:41:01;6.65;;;5.22;;
56373;SDS011;58212;47.034;7.376;2023-12-28T10:43:34;7.07;;;4.95;;
56373;SDS011;58212;47.034;7.376;2023-12-28T10:46:07;9.23;;;5.80;;
56373;SDS011;58212;47.034;7.376;2023-12-28T10:48:37;7.32;;;5.72;;
56373;SDS011;58212;47.034;7.376;2023-12-28T10:51:07;7.80;;;6.20;;
56373;SDS011;58212;47.034;7.376;2023-12-28T10:53:37;9.30;;;5.32;;
56373;SDS011;58212;47.034;7.376;2023-12-28T10:56:14;7.65;;;5.93;;
56373;SDS011;58212;47.034;7.376;2023-12-28T10:58:49;5.90;;;5.30;;
56373;SDS011;58212;47.034;7.376;2023-12-28T11:01:21;8.50;;;5.82;;
56373;SDS011;58212;47.034;7.376;2023-12-28T11:03:52;6.15;;;4.97;;
56373;SDS011;58212;47.034;7.376;2023-12-28T11:06:26;8.68;;;5.03;;
56373;SDS011;58212;47.034;7.376;2023-12-28T11:08:54;6.40;;;5.13;;
56373;SDS011;58212;47.034;7.376;2023-12-28T11:11:24;7.97;;;5.22;;
56373;SDS011;58212;47.034;7.376;2023-12-28T11:13:54;6.07;;;4.75;;
56373;SDS011;58212;47.034;7.376;2023-12-28T11:16:22;6.60;;;5.28;;
56373;SDS011;58212;47.034;7.376;2023-12-28T11:18:50;8.60;;;6.53;;
56373;SDS011;58212;47.034;7.376;2023-12-28T11:21:17;9.98;;;6.80;;
56373;SDS011;58212;47.034;7.376;2023-12-28T11:23:45;7.57;;;6.40;;
56373;SDS011;58212;47.034;7.376;2023-12-28T11:26:16;7.22;;;6.32;;
56373;SDS011;58212;47.034;7.376;2023-12-28T11:28:43;6.63;;;5.82;;
56373;SDS011;58212;47.034;7.376;2023-12-28T11:31:11;5.72;;;5.03;;
56373;SDS011;58212;47.034;7.376;2023-12-28T11:33:43;6.03;;;5.05;;
56373;SDS011;58212;47.034;7.376;2023-12-28T11:36:10;6.30;;;5.60;;
56373;SDS011;58212;47.034;7.376;2023-12-28T11:38:37;9.05;;;5.40;;
56373;SDS011;58212;47.034;7.376;2023-12-28T11:41:07;7.22;;;5.45;;
56373;SDS011;58212;47.034;7.376;2023-12-28T11:43:34;6.95;;;5.50;;
56373;SDS011;58212;47.034;7.376;2023-12-28T11:46:02;7.20;;;6.15;;
56373;SDS011;58212;47.034;7.376;2023-12-28T11:48:32;7.68;;;6.22;;
56373;SDS011;58212;47.034;7.376;2023-12-28T11:50:59;8.00;;;6.47;;
56373;SDS011;58212;47.034;7.376;2023-12-28T11:53:28;8.88;;;5.97;;
56373;SDS011;58212;47.034;7.376;2023-12-28T11:55:59;7.20;;;5.90;;
56373;SDS011;58212;47.034;7.376;2023-12-28T11:58:27;7.78;;;6.15;;
56373;SDS011;58212;47.034;7.376;2023-12-28T12:00:54;8.40;;;5.85;;
56373;SDS011;58212;47.034;7.376;2023-12-28T12:03:20;6.57;;;5.63;;
56373;SDS011;58212;47.034;7.376;2023-12-28T12:05:49;7.50;;;6.20;;
56373;SDS011;58212;47.034;7.376;2023-12-28T12:08:16;8.60;;;6.20;;
56373;SDS011;58212;47.034;7.376;2023-12-28T12:10:43;7.30;;;5.72;;
56373;SDS011;58212;47.034;7.376;2023-12-28T12:13:09;6.90;;;6.03;;
56373;SDS011;58212;47.034;7.376;2023-12-28T12:15:37;10.30;;;6.43;;
56373;SDS011;58212;47.034;7.376;2023-12-28T12:18:03;7.93;;;6.53;;
56373;SDS011;58212;47.034;7.376;2023-12-28T12:20:31;7.47;;;6.40;;
56373;SDS011;58212;47.034;7.376;2023-12-28T12:22:59;10.00;;;6.78;;
56373;SDS011;58212;47.034;7.376;2023-12-28T12:25:28;8.75;;;7.07;;
56373;SDS011;58212;47.034;7.376;2023-12-28T12:27:55;6.93;;;6.28;;
56373;SDS011;58212;47.034;7.376;2023-12-28T12:30:22;6.70;;;6.00;;
56373;SDS011;58212;47.034;7.376;2023-12-28T12:32:49;8.05;;;5.95;;
56373;SDS011;58212;47.034;7.376;2023-12-28T12:35:16;7.70;;;6.82;;
56373;SDS011;58212;47.034;7.376;2023-12-28T12:37:46;8.32;;;6.85;;
56373;SDS011;58212;47.034;7.376;2023-12-28T12:40:16;7.95;;;6.20;;
56373;SDS011;58212;47.034;7.376;2023-12-28T12:42:51;8.35;;;6.78;;
56373;SDS011;58212;47.034;7.376;2023-12-28T12:45:18;9.30;;;6.93;;
56373;SDS011;58212;47.034;7.376;2023-12-28T12:47:46;7.68;;;5.90;;
56373;SDS011;58212;47.034;7.376;2023-12-28T12:50:13;7.88;;;6.43;;
56373;SDS011;58212;47.034;7.376;2023-12-28T12:52:39;7.00;;;6.10;;
56373;SDS011;58212;47.034;7.376;2023-12-28T12:55:10;8.52;;;6.13;;
56373;SDS011;58212;47.034;7.376;2023-12-28T12:57:38;9.50;;;6.30;;
56373;SDS011;58212;47.034;7.376;2023-12-28T13:00:05;8.15;;;6.30;;
56373;SDS011;58212;47.034;7.376;2023-12-28T13:02:34;8.73;;;6.28;;
56373;SDS011;58212;47.034;7.376;2023-12-28T13:05:02;8.40;;;6.00;;
56373;SDS011;58212;47.034;7.376;2023-12-28T13:07:29;9.43;;;6.57;;
56373;SDS011;58212;47.034;7.376;2023-12-28T13:09:56;7.65;;;6.07;;
56373;SDS011;58212;47.034;7.376;2023-12-28T13:12:22;8.20;;;6.45;;
56373;SDS011;58212;47.034;7.376;2023-12-28T13:14:51;6.28;;;5.13;;
56373;SDS011;58212;47.034;7.376;2023-12-28T13:17:18;6.47;;;5.47;;
56373;SDS011;58212;47.034;7.376;2023-12-28T13:19:45;6.35;;;5.50;;
56373;SDS011;58212;47.034;7.376;2023-12-28T13:22:11;7.55;;;5.80;;
56373;SDS011;58212;47.034;7.376;2023-12-28T13:24:38;7.65;;;6.05;;
56373;SDS011;58212;47.034;7.376;2023-12-28T13:27:05;6.60;;;5.55;;
56373;SDS011;58212;47.034;7.376;2023-12-28T13:29:32;5.90;;;5.28;;
56373;SDS011;58212;47.034;7.376;2023-12-28T13:32:00;6.35;;;5.45;;
56373;SDS011;58212;47.034;7.376;2023-12-28T13:34:27;7.72;;;6.25;;
56373;SDS011;58212;47.034;7.376;2023-12-28T13:36:54;8.02;;;6.10;;
56373;SDS011;58212;47.034;7.376;2023-12-28T13:39:20;7.18;;;5.97;;
56373;SDS011;58212;47.034;7.376;2023-12-28T13:41:47;6.65;;;5.95;;
56373;SDS011;58212;47.034;7.376;2023-12-28T13:44:14;7.43;;;6.57;;
56373;SDS011;58212;47.034;7.376;2023-12-28T13:46:42;7.72;;;5.97;;
56373;SDS011;58212;47.034;7.376;2023-12-28T13:49:10;9.13;;;6.25;;
56373;SDS011;58212;47.034;7.376;2023-12-28T13:51:37;11.40;;;6.45;;
56373;SDS011;58212;47.034;7.376;2023-12-28T13:54:04;7.68;;;6.45;;
56373;SDS011;58212;47.034;7.376;2023-12-28T13:56:31;6.63;;;6.00;;
56373;SDS011;58212;47.034;7.376;2023-12-28T13:58:58;6.53;;;5.93;;
56373;SDS011;58212;47.034;7.376;2023-12-28T14:01:25;7.22;;;6.53;;
56373;SDS011;58212;47.034;7.376;2023-12-28T14:03:52;7.38;;;6.20;;
56373;SDS011;58212;47.034;7.376;2023-12-28T14:06:20;7.75;;;6.50;;
56373;SDS011;58212;47.034;7.376;2023-12-28T14:08:47;8.82;;;6.35;;
56373;SDS011;58212;47.034;7.376;2023-12-28T14:11:14;8.02;;;6.95;;
56373;SDS011;58212;47.034;7.376;2023-12-28T14:13:40;6.95;;;6.22;;
56373;SDS011;58212;47.034;7.376;2023-12-28T14:16:07;7.68;;;6.63;;
56373;SDS011;58212;47.034;7.376;2023-12-28T14:18:34;7.65;;;6.00;;
56373;SDS011;58212;47.034;7.376;2023-12-28T14:21:01;7.18;;;6.07;;
56373;SDS011;58212;47.034;7.376;2023-12-28T14:23:30;8.18;;;6.65;;
56373;SDS011;58212;47.034;7.376;2023-12-28T14:25:57;8.05;;;6.85;;
56373;SDS011;58212;47.034;7.376;2023-12-28T14:28:24;7.25;;;6.32;;
56373;SDS011;58212;47.034;7.376;2023-12-28T14:30:54;8.80;;;6.38;;
56373;SDS011;58212;47.034;7.376;2023-12-28T14:33:21;7.05;;;6.35;;
56373;SDS011;58212;47.034;7.376;2023-12-28T14:35:48;7.35;;;6.47;;
56373;SDS011;58212;47.034;7.376;2023-12-28T14:38:15;7.10;;;6.28;;
56373;SDS011;58212;47.034;7.376;2023-12-28T14:40:44;8.45;;;6.30;;
56373;SDS011;58212;47.034;7.376;2023-12-28T14:43:10;8.98;;;6.10;;
56373;SDS011;58212;47.034;7.376;2023-12-28T14:45:37;6.97;;;6.28;;
56373;SDS011;58212;47.034;7.376;2023-12-28T14:48:04;7.88;;;6.28;;
56373;SDS011;58212;47.034;7.376;2023-12-28T14:50:32;7.85;;;6.30;;